sensor_id;sensor_type;location;lat;lon;timestamp;P1;durP1;ratioP1;P2;durP2;ratioP2
75667;SDS011;64266;48.798;44.756;2023-03-26T00:02:02;135.70;;;60.63;;
75667;SDS011;64266;48.798;44.756;2023-03-26T00:07:05;115.43;;;53.50;;
75667;SDS011;64266;48.798;44.756;2023-03-26T00:12:08;113.97;;;52.13;;
75667;SDS011;64266;48.798;44.756;2023-03-26T00:17:11;101.03;;;46.78;;
75667;SDS011;64266;48.798;44.756;2023-03-26T00:22:14;101.75;;;50.22;;
75667;SDS011;64266;48.798;44.756;2023-03-26T00:27:18;99.25;;;48.35;;
75667;SDS011;64266;48.798;44.756;2023-03-26T00:32:20;85.00;;;42.22;;
75667;SDS011;64266;48.798;44.756;2023-03-26T00:37:23;79.93;;;38.80;;
75667;SDS011;64266;48.798;44.756;2023-03-26T00:42:27;77.20;;;36.17;;
75667;SDS011;64266;48.798;44.756;2023-03-26T00:47:30;72.38;;;36.42;;
75667;SDS011;64266;48.798;44.756;2023-03-26T00:52:32;64.53;;;32.13;;
75667;SDS011;64266;48.798;44.756;2023-03-26T00:57:37;59.92;;;30.30;;
75667;SDS011;64266;48.798;44.756;2023-03-26T01:02:42;60.13;;;28.20;;
75667;SDS011;64266;48.798;44.756;2023-03-26T01:07:46;58.92;;;26.88;;
75667;SDS011;64266;48.798;44.756;2023-03-26T01:12:49;57.92;;;24.73;;
75667;SDS011;64266;48.798;44.756;2023-03-26T01:17:52;49.45;;;24.27;;
75667;SDS011;64266;48.798;44.756;2023-03-26T01:23:00;42.35;;;23.52;;
75667;SDS011;64266;48.798;44.756;2023-03-26T01:28:06;48.63;;;25.25;;
75667;SDS011;64266;48.798;44.756;2023-03-26T01:38:32;53.80;;;27.02;;
75667;SDS011;64266;48.798;44.756;2023-03-26T01:49:20;55.92;;;31.42;;
75667;SDS011;64266;48.798;44.756;2023-03-26T01:54:25;61.50;;;33.30;;
75667;SDS011;64266;48.798;44.756;2023-03-26T02:10:03;89.85;;;44.10;;
75667;SDS011;64266;48.798;44.756;2023-03-26T02:15:13;86.38;;;43.75;;
75667;SDS011;64266;48.798;44.756;2023-03-26T02:20:16;87.03;;;45.38;;
75667;SDS011;64266;48.798;44.756;2023-03-26T02:25:20;91.78;;;43.67;;
75667;SDS011;64266;48.798;44.756;2023-03-26T02:30:24;95.72;;;42.47;;
75667;SDS011;64266;48.798;44.756;2023-03-26T02:35:30;98.32;;;41.63;;
75667;SDS011;64266;48.798;44.756;2023-03-26T02:40:35;98.05;;;40.17;;
75667;SDS011;64266;48.798;44.756;2023-03-26T02:45:39;109.00;;;41.95;;
75667;SDS011;64266;48.798;44.756;2023-03-26T02:51:01;103.05;;;38.60;;
75667;SDS011;64266;48.798;44.756;2023-03-26T02:56:25;90.45;;;41.42;;
75667;SDS011;64266;48.798;44.756;2023-03-26T03:01:48;94.78;;;44.80;;
75667;SDS011;64266;48.798;44.756;2023-03-26T03:06:53;84.72;;;41.78;;
75667;SDS011;64266;48.798;44.756;2023-03-26T03:11:59;96.38;;;48.03;;
75667;SDS011;64266;48.798;44.756;2023-03-26T03:17:03;95.35;;;46.00;;
75667;SDS011;64266;48.798;44.756;2023-03-26T03:22:06;96.25;;;45.33;;
75667;SDS011;64266;48.798;44.756;2023-03-26T03:27:09;88.05;;;44.67;;
75667;SDS011;64266;48.798;44.756;2023-03-26T03:32:23;101.05;;;42.63;;
75667;SDS011;64266;48.798;44.756;2023-03-26T03:37:30;88.55;;;42.55;;
75667;SDS011;64266;48.798;44.756;2023-03-26T03:42:35;91.03;;;44.13;;
75667;SDS011;64266;48.798;44.756;2023-03-26T03:47:40;85.18;;;43.35;;
75667;SDS011;64266;48.798;44.756;2023-03-26T03:52:44;90.70;;;44.45;;
75667;SDS011;64266;48.798;44.756;2023-03-26T03:57:49;71.20;;;38.42;;
75667;SDS011;64266;48.798;44.756;2023-03-26T04:02:57;72.20;;;38.28;;
75667;SDS011;64266;48.798;44.756;2023-03-26T04:08:02;72.05;;;36.50;;
75667;SDS011;64266;48.798;44.756;2023-03-26T04:13:16;74.20;;;34.58;;
75667;SDS011;64266;48.798;44.756;2023-03-26T04:18:25;76.82;;;37.60;;
75667;SDS011;64266;48.798;44.756;2023-03-26T04:23:30;69.57;;;33.50;;
75667;SDS011;64266;48.798;44.756;2023-03-26T04:28:44;70.97;;;36.10;;
75667;SDS011;64266;48.798;44.756;2023-03-26T04:34:01;73.97;;;36.92;;
75667;SDS011;64266;48.798;44.756;2023-03-26T04:39:17;74.65;;;36.53;;
75667;SDS011;64266;48.798;44.756;2023-03-26T04:44:38;70.50;;;33.95;;
75667;SDS011;64266;48.798;44.756;2023-03-26T04:49:46;68.57;;;33.80;;
75667;SDS011;64266;48.798;44.756;2023-03-26T04:54:51;63.60;;;32.13;;
75667;SDS011;64266;48.798;44.756;2023-03-26T04:59:58;56.25;;;29.83;;
75667;SDS011;64266;48.798;44.756;2023-03-26T05:05:06;48.83;;;27.15;;
75667;SDS011;64266;48.798;44.756;2023-03-26T05:23:05;27.08;;;10.82;;
75667;SDS011;64266;48.798;44.756;2023-03-26T05:47:25;25.80;;;7.85;;
75667;SDS011;64266;48.798;44.756;2023-03-26T05:52:29;31.35;;;11.77;;
75667;SDS011;64266;48.798;44.756;2023-03-26T06:22:46;18.00;;;7.45;;
75667;SDS011;64266;48.798;44.756;2023-03-26T06:28:41;19.67;;;7.82;;
75667;SDS011;64266;48.798;44.756;2023-03-26T06:34:03;22.45;;;7.25;;
75667;SDS011;64266;48.798;44.756;2023-03-26T06:39:06;30.65;;;6.97;;
75667;SDS011;64266;48.798;44.756;2023-03-26T06:44:13;51.95;;;18.05;;
75667;SDS011;64266;48.798;44.756;2023-03-26T06:49:36;22.25;;;7.53;;
75667;SDS011;64266;48.798;44.756;2023-03-26T06:54:52;19.85;;;6.40;;
75667;SDS011;64266;48.798;44.756;2023-03-26T07:00:19;21.95;;;5.90;;
75667;SDS011;64266;48.798;44.756;2023-03-26T07:05:41;20.58;;;5.93;;
75667;SDS011;64266;48.798;44.756;2023-03-26T07:11:02;16.83;;;4.97;;
75667;SDS011;64266;48.798;44.756;2023-03-26T07:16:36;21.98;;;5.22;;
75667;SDS011;64266;48.798;44.756;2023-03-26T07:21:53;16.20;;;4.68;;
75667;SDS011;64266;48.798;44.756;2023-03-26T07:27:28;15.93;;;4.68;;
75667;SDS011;64266;48.798;44.756;2023-03-26T07:49:54;18.02;;;4.38;;
75667;SDS011;64266;48.798;44.756;2023-03-26T07:55:23;15.73;;;4.10;;
75667;SDS011;64266;48.798;44.756;2023-03-26T08:00:57;17.48;;;3.72;;
75667;SDS011;64266;48.798;44.756;2023-03-26T08:17:26;13.43;;;3.50;;
75667;SDS011;64266;48.798;44.756;2023-03-26T08:22:37;15.98;;;3.42;;
75667;SDS011;64266;48.798;44.756;2023-03-26T08:33:13;19.40;;;3.95;;
75667;SDS011;64266;48.798;44.756;2023-03-26T08:38:22;97.93;;;9.88;;
75667;SDS011;64266;48.798;44.756;2023-03-26T10:36:29;14.82;;;5.22;;
75667;SDS011;64266;48.798;44.756;2023-03-26T11:03:26;13.82;;;6.28;;
75667;SDS011;64266;48.798;44.756;2023-03-26T11:25:25;11.07;;;4.75;;
75667;SDS011;64266;48.798;44.756;2023-03-26T11:30:46;15.48;;;4.53;;
75667;SDS011;64266;48.798;44.756;2023-03-26T11:36:04;9.55;;;4.63;;
75667;SDS011;64266;48.798;44.756;2023-03-26T11:46:51;10.65;;;4.85;;
75667;SDS011;64266;48.798;44.756;2023-03-26T11:52:00;14.93;;;5.53;;
75667;SDS011;64266;48.798;44.756;2023-03-26T11:57:11;10.18;;;4.63;;
75667;SDS011;64266;48.798;44.756;2023-03-26T12:02:30;12.13;;;4.43;;
75667;SDS011;64266;48.798;44.756;2023-03-26T12:07:44;10.20;;;3.80;;
75667;SDS011;64266;48.798;44.756;2023-03-26T12:12:55;13.70;;;4.30;;
75667;SDS011;64266;48.798;44.756;2023-03-26T12:18:16;11.63;;;4.68;;
75667;SDS011;64266;48.798;44.756;2023-03-26T12:23:33;10.23;;;3.88;;
75667;SDS011;64266;48.798;44.756;2023-03-26T12:28:42;7.65;;;3.78;;
75667;SDS011;64266;48.798;44.756;2023-03-26T12:45:49;10.15;;;2.40;;
75667;SDS011;64266;48.798;44.756;2023-03-26T12:56:50;13.15;;;3.10;;
75667;SDS011;64266;48.798;44.756;2023-03-26T13:18:22;10.38;;;3.40;;
75667;SDS011;64266;48.798;44.756;2023-03-26T13:29:01;8.48;;;3.42;;
75667;SDS011;64266;48.798;44.756;2023-03-26T13:39:46;13.98;;;3.97;;
75667;SDS011;64266;48.798;44.756;2023-03-26T14:06:11;17.00;;;6.05;;
75667;SDS011;64266;48.798;44.756;2023-03-26T14:11:46;24.35;;;7.10;;
75667;SDS011;64266;48.798;44.756;2023-03-26T14:16:47;31.33;;;7.22;;
75667;SDS011;64266;48.798;44.756;2023-03-26T14:22:40;12.30;;;5.28;;
75667;SDS011;64266;48.798;44.756;2023-03-26T14:27:43;12.40;;;5.50;;
75667;SDS011;64266;48.798;44.756;2023-03-26T14:54:54;28.50;;;7.95;;
75667;SDS011;64266;48.798;44.756;2023-03-26T15:06:25;26.48;;;6.63;;
75667;SDS011;64266;48.798;44.756;2023-03-26T15:11:54;14.70;;;5.93;;
75667;SDS011;64266;48.798;44.756;2023-03-26T15:55:04;14.90;;;4.85;;
75667;SDS011;64266;48.798;44.756;2023-03-26T16:00:25;13.98;;;4.53;;
75667;SDS011;64266;48.798;44.756;2023-03-26T16:05:34;16.80;;;4.80;;
75667;SDS011;64266;48.798;44.756;2023-03-26T16:15:54;17.95;;;3.90;;
75667;SDS011;64266;48.798;44.756;2023-03-26T16:26:46;14.38;;;4.00;;
75667;SDS011;64266;48.798;44.756;2023-03-26T16:32:16;14.10;;;3.83;;
75667;SDS011;64266;48.798;44.756;2023-03-26T16:37:37;22.88;;;6.90;;
75667;SDS011;64266;48.798;44.756;2023-03-26T16:48:22;20.75;;;5.50;;
75667;SDS011;64266;48.798;44.756;2023-03-26T17:04:17;18.42;;;5.00;;
75667;SDS011;64266;48.798;44.756;2023-03-26T17:25:32;12.23;;;4.40;;
75667;SDS011;64266;48.798;44.756;2023-03-26T17:31:42;9.63;;;3.85;;
75667;SDS011;64266;48.798;44.756;2023-03-26T17:36:42;11.93;;;3.40;;
75667;SDS011;64266;48.798;44.756;2023-03-26T17:41:54;7.80;;;3.25;;
75667;SDS011;64266;48.798;44.756;2023-03-26T17:47:19;7.80;;;3.20;;
75667;SDS011;64266;48.798;44.756;2023-03-26T17:57:40;10.15;;;3.78;;
75667;SDS011;64266;48.798;44.756;2023-03-26T18:02:50;11.07;;;3.55;;
75667;SDS011;64266;48.798;44.756;2023-03-26T18:18:52;13.20;;;3.58;;
75667;SDS011;64266;48.798;44.756;2023-03-26T18:23:58;10.20;;;4.05;;
75667;SDS011;64266;48.798;44.756;2023-03-26T18:29:20;9.23;;;3.53;;
75667;SDS011;64266;48.798;44.756;2023-03-26T18:34:31;9.80;;;3.85;;
75667;SDS011;64266;48.798;44.756;2023-03-26T18:39:35;10.43;;;3.17;;
75667;SDS011;64266;48.798;44.756;2023-03-26T18:44:39;9.98;;;3.60;;
75667;SDS011;64266;48.798;44.756;2023-03-26T18:49:42;9.00;;;3.58;;
75667;SDS011;64266;48.798;44.756;2023-03-26T18:54:49;9.35;;;3.83;;
75667;SDS011;64266;48.798;44.756;2023-03-26T18:59:54;8.05;;;3.88;;
75667;SDS011;64266;48.798;44.756;2023-03-26T19:05:13;9.48;;;3.80;;
75667;SDS011;64266;48.798;44.756;2023-03-26T19:10:17;12.68;;;3.90;;
75667;SDS011;64266;48.798;44.756;2023-03-26T19:20:28;11.25;;;4.13;;
75667;SDS011;64266;48.798;44.756;2023-03-26T19:25:48;12.07;;;4.10;;
75667;SDS011;64266;48.798;44.756;2023-03-26T19:30:57;8.88;;;3.92;;
75667;SDS011;64266;48.798;44.756;2023-03-26T19:41:23;7.88;;;3.28;;
75667;SDS011;64266;48.798;44.756;2023-03-26T19:46:27;8.88;;;4.07;;
75667;SDS011;64266;48.798;44.756;2023-03-26T19:51:34;9.00;;;3.80;;
75667;SDS011;64266;48.798;44.756;2023-03-26T19:56:37;7.30;;;3.55;;
75667;SDS011;64266;48.798;44.756;2023-03-26T20:01:40;11.35;;;4.13;;
75667;SDS011;64266;48.798;44.756;2023-03-26T20:06:43;11.05;;;4.10;;
75667;SDS011;64266;48.798;44.756;2023-03-26T20:11:50;10.82;;;4.72;;
75667;SDS011;64266;48.798;44.756;2023-03-26T20:16:53;8.80;;;3.80;;
75667;SDS011;64266;48.798;44.756;2023-03-26T20:21:56;11.93;;;4.47;;
75667;SDS011;64266;48.798;44.756;2023-03-26T20:26:59;12.85;;;4.47;;
75667;SDS011;64266;48.798;44.756;2023-03-26T20:32:01;9.43;;;4.35;;
75667;SDS011;64266;48.798;44.756;2023-03-26T20:37:07;10.15;;;4.32;;
75667;SDS011;64266;48.798;44.756;2023-03-26T20:42:11;9.75;;;4.07;;
75667;SDS011;64266;48.798;44.756;2023-03-26T20:47:20;10.13;;;4.47;;
75667;SDS011;64266;48.798;44.756;2023-03-26T20:52:23;6.85;;;4.10;;
75667;SDS011;64266;48.798;44.756;2023-03-26T20:57:26;10.27;;;4.60;;
75667;SDS011;64266;48.798;44.756;2023-03-26T21:02:29;10.95;;;4.00;;
75667;SDS011;64266;48.798;44.756;2023-03-26T21:07:32;9.48;;;4.65;;
75667;SDS011;64266;48.798;44.756;2023-03-26T21:12:36;8.68;;;4.15;;
75667;SDS011;64266;48.798;44.756;2023-03-26T21:17:43;12.13;;;4.68;;
75667;SDS011;64266;48.798;44.756;2023-03-26T21:33:43;10.00;;;4.80;;
75667;SDS011;64266;48.798;44.756;2023-03-26T21:38:47;8.98;;;4.65;;
75667;SDS011;64266;48.798;44.756;2023-03-26T21:43:51;9.70;;;5.05;;
75667;SDS011;64266;48.798;44.756;2023-03-26T21:48:54;11.88;;;5.00;;
75667;SDS011;64266;48.798;44.756;2023-03-26T21:53:58;10.00;;;5.10;;
75667;SDS011;64266;48.798;44.756;2023-03-26T21:59:03;10.95;;;5.00;;
75667;SDS011;64266;48.798;44.756;2023-03-26T22:09:57;10.57;;;4.50;;
75667;SDS011;64266;48.798;44.756;2023-03-26T22:14:59;8.90;;;5.18;;
75667;SDS011;64266;48.798;44.756;2023-03-26T22:20:03;14.93;;;5.50;;
75667;SDS011;64266;48.798;44.756;2023-03-26T22:25:16;9.30;;;4.63;;
75667;SDS011;64266;48.798;44.756;2023-03-26T22:30:20;9.77;;;5.05;;
75667;SDS011;64266;48.798;44.756;2023-03-26T22:35:24;9.02;;;5.32;;
75667;SDS011;64266;48.798;44.756;2023-03-26T22:40:28;10.30;;;4.93;;
75667;SDS011;64266;48.798;44.756;2023-03-26T22:45:31;11.23;;;5.72;;
75667;SDS011;64266;48.798;44.756;2023-03-26T22:50:33;11.30;;;6.10;;
75667;SDS011;64266;48.798;44.756;2023-03-26T22:55:37;14.93;;;6.35;;
75667;SDS011;64266;48.798;44.756;2023-03-26T23:00:39;14.40;;;6.40;;
75667;SDS011;64266;48.798;44.756;2023-03-26T23:05:42;11.93;;;6.10;;
75667;SDS011;64266;48.798;44.756;2023-03-26T23:10:45;11.77;;;6.50;;
75667;SDS011;64266;48.798;44.756;2023-03-26T23:15:48;10.63;;;5.97;;
75667;SDS011;64266;48.798;44.756;2023-03-26T23:20:53;15.73;;;6.40;;
75667;SDS011;64266;48.798;44.756;2023-03-26T23:25:58;12.95;;;7.15;;
75667;SDS011;64266;48.798;44.756;2023-03-26T23:36:07;13.88;;;6.57;;
75667;SDS011;64266;48.798;44.756;2023-03-26T23:41:11;19.98;;;8.32;;
75667;SDS011;64266;48.798;44.756;2023-03-26T23:46:16;14.02;;;6.38;;
75667;SDS011;64266;48.798;44.756;2023-03-26T23:51:19;11.90;;;6.05;;
75667;SDS011;64266;48.798;44.756;2023-03-26T23:56:23;12.15;;;5.68;;
